VLG29EB LPPR-LEBB
Flight info
| Callsign | VLG29EB |
|---|---|
| Flight time | 0h 54m |
| Altitude | 32000 |
| Route | BELDU9E BELDU DCT ADORO DCT FITSE DCT NUBLO DCT RONSI M190 SNR SNR1Y |
| Aircraft | A320/M-SDE3FGHIRWY/LB1 |
Departure
| Time | 2026-05-01 11:38 |
|---|---|
| Airport | Francisco de Sá Carneiro Airport (LPPR) |
Arrival
| Time | 2026-05-01 12:33 |
|---|---|
| Airport | Bilbao Airport (LEBB) |
| Time | Latitude | Longitude | Altitude | Speed | Heading |
|---|---|---|---|---|---|
| 2026-05-01 11:07 | 41.23776 | -8.67295 | 245 ft | 0 kts | 49° |
| 2026-05-01 11:13 | 41.23776 | -8.67296 | 245 ft | 0 kts | 49° |
| 2026-05-01 11:14 | 41.23775 | -8.67296 | 245 ft | 0 kts | 49° |
| 2026-05-01 11:28 | 41.23760 | -8.67321 | 244 ft | 4 kts | 57° |
| 2026-05-01 11:28 | 41.23747 | -8.67352 | 243 ft | 4 kts | 69° |
| 2026-05-01 11:29 | 41.23739 | -8.67421 | 240 ft | 4 kts | 108° |
| 2026-05-01 11:29 | 41.23744 | -8.67436 | 239 ft | 0 kts | 126° |
| 2026-05-01 11:32 | 41.23736 | -8.67421 | 239 ft | 6 kts | 126° |
| 2026-05-01 11:32 | 41.23686 | -8.67351 | 242 ft | 15 kts | 153° |
| 2026-05-01 11:33 | 41.23565 | -8.67356 | 241 ft | 19 kts | 211° |
| 2026-05-01 11:33 | 41.23431 | -8.67372 | 240 ft | 12 kts | 168° |
| 2026-05-01 11:33 | 41.23352 | -8.67382 | 237 ft | 13 kts | 216° |
| 2026-05-01 11:33 | 41.23321 | -8.67508 | 236 ft | 12 kts | 259° |
| 2026-05-01 11:34 | 41.23315 | -8.67553 | 241 ft | 4 kts | 259° |
| 2026-05-01 11:34 | 41.23310 | -8.67587 | 236 ft | 3 kts | 259° |
| 2026-05-01 11:34 | 41.23307 | -8.67607 | 236 ft | 1 kts | 259° |
| 2026-05-01 11:34 | 41.23307 | -8.67610 | 236 ft | 0 kts | 259° |
| 2026-05-01 11:37 | 41.23305 | -8.67620 | 236 ft | 4 kts | 259° |
| 2026-05-01 11:37 | 41.23300 | -8.67674 | 237 ft | 8 kts | 274° |
| 2026-05-01 11:37 | 41.23341 | -8.67742 | 238 ft | 12 kts | 343° |
| 2026-05-01 11:37 | 41.23452 | -8.67770 | 239 ft | 20 kts | 349° |
| 2026-05-01 11:38 | 41.23709 | -8.67839 | 228 ft | 72 kts | 348° |
| 2026-05-01 11:38 | 41.24434 | -8.68030 | 209 ft | 138 kts | 348° |
| 2026-05-01 11:38 | 41.25513 | -8.68325 | 434 ft | 167 kts | 347° |
| 2026-05-01 11:38 | 41.26685 | -8.68666 | 1098 ft | 177 kts | 346° |
| 2026-05-01 11:39 | 41.27907 | -8.69010 | 1790 ft | 185 kts | 347° |
| 2026-05-01 11:39 | 41.29248 | -8.69355 | 2141 ft | 209 kts | 347° |
| 2026-05-01 11:39 | 41.30763 | -8.69741 | 2572 ft | 234 kts | 348° |
| 2026-05-01 11:39 | 41.32440 | -8.70168 | 3066 ft | 258 kts | 348° |
| 2026-05-01 11:40 | 41.34245 | -8.70630 | 3852 ft | 269 kts | 349° |
| 2026-05-01 11:40 | 41.36103 | -8.71110 | 4802 ft | 275 kts | 349° |
| 2026-05-01 11:40 | 41.37994 | -8.71594 | 5762 ft | 279 kts | 351° |
| 2026-05-01 11:40 | 41.39947 | -8.71606 | 6672 ft | 284 kts | 12° |
| 2026-05-01 11:41 | 41.41192 | -8.71064 | 7236 ft | 286 kts | 28° |
| 2026-05-01 11:41 | 41.42753 | -8.69425 | 8094 ft | 289 kts | 53° |
| 2026-05-01 11:41 | 41.43763 | -8.66178 | 9201 ft | 291 kts | 87° |
| 2026-05-01 11:41 | 41.43853 | -8.63464 | 10049 ft | 296 kts | 90° |
| 2026-05-01 11:42 | 41.43922 | -8.60650 | 10526 ft | 315 kts | 90° |
| 2026-05-01 11:42 | 41.43971 | -8.58622 | 10726 ft | 332 kts | 90° |
| 2026-05-01 11:42 | 41.44051 | -8.55461 | 11188 ft | 347 kts | 90° |
| 2026-05-01 11:42 | 41.44140 | -8.52260 | 11909 ft | 353 kts | 90° |
| 2026-05-01 11:43 | 41.44234 | -8.48972 | 12688 ft | 358 kts | 90° |
| 2026-05-01 11:43 | 41.44329 | -8.45637 | 13467 ft | 362 kts | 91° |
| 2026-05-01 11:43 | 41.44423 | -8.42257 | 14195 ft | 366 kts | 91° |
| 2026-05-01 11:44 | 41.44612 | -8.35385 | 15512 ft | 376 kts | 91° |
| 2026-05-01 11:44 | 41.44706 | -8.31883 | 16131 ft | 381 kts | 91° |
| 2026-05-01 11:44 | 41.44800 | -8.28332 | 16768 ft | 386 kts | 91° |
| 2026-05-01 11:44 | 41.44893 | -8.24738 | 17396 ft | 390 kts | 91° |
| 2026-05-01 11:45 | 41.44988 | -8.21101 | 18039 ft | 395 kts | 91° |
| 2026-05-01 11:45 | 41.45082 | -8.17423 | 18644 ft | 399 kts | 91° |
| 2026-05-01 11:45 | 41.45174 | -8.13708 | 19196 ft | 403 kts | 91° |
| 2026-05-01 11:45 | 41.45268 | -8.09952 | 19769 ft | 407 kts | 91° |
| 2026-05-01 11:46 | 41.45365 | -8.06158 | 20342 ft | 411 kts | 91° |
| 2026-05-01 11:46 | 41.45458 | -8.02337 | 20906 ft | 415 kts | 91° |
| 2026-05-01 11:46 | 41.45551 | -7.98477 | 21478 ft | 418 kts | 91° |
| 2026-05-01 11:46 | 41.45642 | -7.94582 | 22027 ft | 422 kts | 91° |
| 2026-05-01 11:47 | 41.45732 | -7.90652 | 22588 ft | 426 kts | 91° |
| 2026-05-01 11:47 | 41.45822 | -7.86688 | 23148 ft | 430 kts | 91° |
| 2026-05-01 11:47 | 41.45909 | -7.82745 | 23650 ft | 433 kts | 91° |
| 2026-05-01 11:47 | 41.45999 | -7.78666 | 24023 ft | 436 kts | 91° |
| 2026-05-01 11:48 | 41.46087 | -7.74670 | 24129 ft | 437 kts | 91° |
| 2026-05-01 11:48 | 41.46176 | -7.70627 | 24159 ft | 437 kts | 91° |
| 2026-05-01 11:48 | 41.46266 | -7.66580 | 24155 ft | 437 kts | 91° |
| 2026-05-01 11:48 | 41.46350 | -7.62535 | 24158 ft | 436 kts | 91° |
| 2026-05-01 11:49 | 41.46429 | -7.58492 | 24147 ft | 436 kts | 91° |
| 2026-05-01 11:49 | 41.46507 | -7.54456 | 24157 ft | 436 kts | 91° |
| 2026-05-01 11:49 | 41.46584 | -7.50419 | 24156 ft | 435 kts | 91° |
| 2026-05-01 11:49 | 41.46660 | -7.46382 | 24156 ft | 435 kts | 91° |
| 2026-05-01 11:50 | 41.46737 | -7.42352 | 24159 ft | 435 kts | 91° |
| 2026-05-01 11:50 | 41.46813 | -7.38321 | 24167 ft | 435 kts | 91° |
| 2026-05-01 11:50 | 41.46885 | -7.34284 | 24163 ft | 435 kts | 91° |
| 2026-05-01 11:50 | 41.46956 | -7.30244 | 24160 ft | 435 kts | 91° |
| 2026-05-01 11:51 | 41.47029 | -7.26212 | 24167 ft | 436 kts | 91° |
| 2026-05-01 11:51 | 41.47098 | -7.22153 | 24516 ft | 439 kts | 91° |
| 2026-05-01 11:51 | 41.47163 | -7.18071 | 24970 ft | 441 kts | 91° |
| 2026-05-01 11:51 | 41.47229 | -7.13977 | 25406 ft | 443 kts | 91° |
| 2026-05-01 11:52 | 41.47298 | -7.09855 | 25818 ft | 446 kts | 91° |
| 2026-05-01 11:52 | 41.47368 | -7.05711 | 26223 ft | 449 kts | 91° |
| 2026-05-01 11:52 | 41.47436 | -7.01540 | 26622 ft | 451 kts | 91° |
| 2026-05-01 11:52 | 41.47502 | -6.97349 | 27003 ft | 454 kts | 91° |
| 2026-05-01 11:53 | 41.47564 | -6.93182 | 27376 ft | 457 kts | 91° |
| 2026-05-01 11:53 | 41.47623 | -6.88930 | 27754 ft | 459 kts | 91° |
| 2026-05-01 11:53 | 41.47681 | -6.84660 | 28119 ft | 462 kts | 91° |
| 2026-05-01 11:53 | 41.47738 | -6.80365 | 28471 ft | 465 kts | 91° |
| 2026-05-01 11:54 | 41.47794 | -6.76038 | 28810 ft | 467 kts | 91° |
| 2026-05-01 11:54 | 41.47848 | -6.71698 | 29150 ft | 470 kts | 91° |
| 2026-05-01 11:54 | 41.47898 | -6.67319 | 29479 ft | 473 kts | 91° |
| 2026-05-01 11:54 | 41.47947 | -6.62924 | 29784 ft | 475 kts | 91° |
| 2026-05-01 11:55 | 41.47997 | -6.58510 | 30096 ft | 477 kts | 91° |
| 2026-05-01 11:55 | 41.48048 | -6.54076 | 30370 ft | 480 kts | 91° |
| 2026-05-01 11:55 | 41.48099 | -6.49607 | 30619 ft | 482 kts | 91° |
| 2026-05-01 11:55 | 41.48147 | -6.45138 | 30862 ft | 483 kts | 91° |
| 2026-05-01 11:56 | 41.48193 | -6.40650 | 31135 ft | 484 kts | 91° |
| 2026-05-01 11:56 | 41.48240 | -6.36158 | 31388 ft | 485 kts | 91° |
| 2026-05-01 11:56 | 41.48346 | -6.31722 | 31713 ft | 485 kts | 87° |
| 2026-05-01 11:56 | 41.48858 | -6.27280 | 32033 ft | 486 kts | 78° |
| 2026-05-01 11:57 | 41.49826 | -6.22964 | 32144 ft | 483 kts | 70° |
| 2026-05-01 11:57 | 41.51076 | -6.18861 | 32161 ft | 474 kts | 69° |
| 2026-05-01 11:57 | 41.53552 | -6.10764 | 32160 ft | 469 kts | 69° |
| 2026-05-01 11:58 | 41.55996 | -6.02691 | 32160 ft | 468 kts | 69° |
| 2026-05-01 11:59 | 41.59618 | -5.90593 | 32161 ft | 467 kts | 69° |
| 2026-05-01 11:59 | 41.62030 | -5.82532 | 32157 ft | 467 kts | 69° |
| 2026-05-01 12:00 | 41.65644 | -5.70448 | 32147 ft | 466 kts | 69° |
| 2026-05-01 12:01 | 41.69741 | -5.58690 | 32156 ft | 466 kts | 54° |
| 2026-05-01 12:01 | 41.74271 | -5.52636 | 32151 ft | 465 kts | 33° |
| 2026-05-01 12:02 | 41.80001 | -5.48752 | 32148 ft | 462 kts | 21° |
| 2026-05-01 12:02 | 41.85926 | -5.45395 | 32157 ft | 462 kts | 21° |
| 2026-05-01 12:03 | 41.91847 | -5.42018 | 32154 ft | 463 kts | 21° |
| 2026-05-01 12:03 | 41.97780 | -5.38634 | 32154 ft | 463 kts | 21° |
| 2026-05-01 12:04 | 42.03711 | -5.35245 | 32157 ft | 463 kts | 21° |
| 2026-05-01 12:04 | 42.09641 | -5.31854 | 32162 ft | 463 kts | 21° |
| 2026-05-01 12:05 | 42.15568 | -5.28456 | 32170 ft | 462 kts | 22° |
| 2026-05-01 12:05 | 42.24433 | -5.23347 | 32171 ft | 461 kts | 22° |
| 2026-05-01 12:06 | 42.30340 | -5.19940 | 32178 ft | 461 kts | 22° |
| 2026-05-01 12:06 | 42.36243 | -5.16539 | 32170 ft | 461 kts | 22° |
| 2026-05-01 12:07 | 42.42106 | -5.13151 | 32164 ft | 461 kts | 22° |
| 2026-05-01 12:07 | 42.48000 | -5.09735 | 32161 ft | 461 kts | 22° |
| 2026-05-01 12:08 | 42.53900 | -5.06308 | 32164 ft | 461 kts | 22° |
| 2026-05-01 12:08 | 42.59800 | -5.02869 | 32164 ft | 462 kts | 22° |
| 2026-05-01 12:09 | 42.65702 | -4.99418 | 32163 ft | 462 kts | 22° |
| 2026-05-01 12:09 | 42.71601 | -4.95972 | 32162 ft | 462 kts | 22° |
| 2026-05-01 12:10 | 42.80445 | -4.90798 | 32169 ft | 460 kts | 22° |
| 2026-05-01 12:11 | 42.89258 | -4.85619 | 32170 ft | 460 kts | 22° |
| 2026-05-01 12:11 | 42.95127 | -4.82152 | 32172 ft | 459 kts | 22° |
| 2026-05-01 12:12 | 43.00966 | -4.78700 | 32149 ft | 465 kts | 22° |
| 2026-05-01 12:12 | 43.03955 | -4.76930 | 31246 ft | 471 kts | 22° |
| 2026-05-01 12:12 | 43.06972 | -4.75140 | 29732 ft | 473 kts | 22° |
| 2026-05-01 12:13 | 43.09928 | -4.73383 | 29231 ft | 450 kts | 22° |
| 2026-05-01 12:13 | 43.12728 | -4.71717 | 29024 ft | 432 kts | 22° |
| 2026-05-01 12:13 | 43.15480 | -4.70080 | 28404 ft | 430 kts | 22° |
| 2026-05-01 12:13 | 43.18218 | -4.68446 | 27806 ft | 428 kts | 22° |
| 2026-05-01 12:14 | 43.20952 | -4.66816 | 27214 ft | 426 kts | 22° |
| 2026-05-01 12:14 | 43.23661 | -4.65203 | 26613 ft | 424 kts | 22° |
| 2026-05-01 12:14 | 43.26362 | -4.63598 | 26045 ft | 422 kts | 22° |
| 2026-05-01 12:14 | 43.29050 | -4.62004 | 25474 ft | 420 kts | 23° |
| 2026-05-01 12:15 | 43.31724 | -4.60411 | 24921 ft | 418 kts | 23° |
| 2026-05-01 12:15 | 43.34386 | -4.58817 | 24384 ft | 416 kts | 23° |
| 2026-05-01 12:15 | 43.37031 | -4.57226 | 23841 ft | 415 kts | 23° |
| 2026-05-01 12:15 | 43.39636 | -4.55660 | 23288 ft | 412 kts | 23° |
| 2026-05-01 12:16 | 43.42227 | -4.54021 | 22790 ft | 408 kts | 29° |
| 2026-05-01 12:16 | 43.44495 | -4.51729 | 22306 ft | 403 kts | 45° |
| 2026-05-01 12:16 | 43.46257 | -4.48764 | 21823 ft | 397 kts | 59° |
| 2026-05-01 12:16 | 43.47415 | -4.45354 | 21380 ft | 390 kts | 75° |
| 2026-05-01 12:17 | 43.47909 | -4.41771 | 21288 ft | 373 kts | 89° |
| 2026-05-01 12:17 | 43.47857 | -4.38275 | 21205 ft | 362 kts | 96° |
| 2026-05-01 12:17 | 43.47694 | -4.34808 | 21120 ft | 363 kts | 96° |
| 2026-05-01 12:17 | 43.47525 | -4.31339 | 21043 ft | 363 kts | 96° |
| 2026-05-01 12:18 | 43.47334 | -4.27877 | 20961 ft | 363 kts | 97° |
| 2026-05-01 12:18 | 43.47127 | -4.24421 | 20876 ft | 362 kts | 97° |
| 2026-05-01 12:18 | 43.46909 | -4.20958 | 20795 ft | 362 kts | 97° |
| 2026-05-01 12:18 | 43.46690 | -4.17514 | 20656 ft | 361 kts | 97° |
| 2026-05-01 12:19 | 43.46468 | -4.14017 | 19765 ft | 373 kts | 97° |
| 2026-05-01 12:19 | 43.46241 | -4.10437 | 19138 ft | 376 kts | 97° |
| 2026-05-01 12:19 | 43.46020 | -4.06894 | 18649 ft | 375 kts | 97° |
| 2026-05-01 12:19 | 43.45801 | -4.03324 | 18153 ft | 374 kts | 97° |
| 2026-05-01 12:20 | 43.45583 | -3.99774 | 17662 ft | 371 kts | 97° |
| 2026-05-01 12:20 | 43.45358 | -3.96202 | 16686 ft | 381 kts | 97° |
| 2026-05-01 12:20 | 43.45122 | -3.92511 | 15583 ft | 394 kts | 97° |
| 2026-05-01 12:20 | 43.45069 | -3.88678 | 14463 ft | 409 kts | 88° |
| 2026-05-01 12:21 | 43.45318 | -3.84734 | 13459 ft | 416 kts | 86° |
| 2026-05-01 12:21 | 43.45576 | -3.80780 | 12706 ft | 413 kts | 87° |
| 2026-05-01 12:21 | 43.45829 | -3.76865 | 11970 ft | 409 kts | 87° |
| 2026-05-01 12:21 | 43.46082 | -3.72990 | 11272 ft | 404 kts | 86° |
| 2026-05-01 12:22 | 43.46331 | -3.69158 | 10576 ft | 399 kts | 87° |
| 2026-05-01 12:22 | 43.46565 | -3.65379 | 9863 ft | 394 kts | 87° |
| 2026-05-01 12:22 | 43.46786 | -3.61648 | 9097 ft | 389 kts | 88° |
| 2026-05-01 12:22 | 43.47002 | -3.57957 | 8342 ft | 384 kts | 88° |
| 2026-05-01 12:23 | 43.47214 | -3.54363 | 7588 ft | 379 kts | 88° |
| 2026-05-01 12:23 | 43.47429 | -3.50766 | 6833 ft | 375 kts | 88° |
| 2026-05-01 12:23 | 43.47643 | -3.47217 | 6052 ft | 369 kts | 88° |
| 2026-05-01 12:23 | 43.47852 | -3.43715 | 5260 ft | 364 kts | 87° |
| 2026-05-01 12:24 | 43.48058 | -3.40271 | 4678 ft | 354 kts | 87° |
| 2026-05-01 12:24 | 43.48184 | -3.36993 | 4502 ft | 331 kts | 96° |
| 2026-05-01 12:24 | 43.47595 | -3.34150 | 4469 ft | 289 kts | 121° |
| 2026-05-01 12:24 | 43.46333 | -3.32292 | 4480 ft | 250 kts | 146° |
| 2026-05-01 12:25 | 43.45093 | -3.30841 | 4474 ft | 222 kts | 131° |
| 2026-05-01 12:25 | 43.43495 | -3.27670 | 4482 ft | 193 kts | 123° |
| 2026-05-01 12:25 | 43.42858 | -3.26047 | 4492 ft | 189 kts | 121° |
| 2026-05-01 12:26 | 43.42292 | -3.24508 | 4500 ft | 172 kts | 120° |
| 2026-05-01 12:26 | 43.41325 | -3.21841 | 4453 ft | 141 kts | 122° |
| 2026-05-01 12:26 | 43.40889 | -3.20644 | 4471 ft | 141 kts | 120° |
| 2026-05-01 12:27 | 43.40454 | -3.19449 | 4409 ft | 141 kts | 121° |
| 2026-05-01 12:27 | 43.39583 | -3.17046 | 4087 ft | 140 kts | 121° |
| 2026-05-01 12:28 | 43.38722 | -3.14677 | 3721 ft | 137 kts | 119° |
| 2026-05-01 12:28 | 43.38296 | -3.13503 | 3539 ft | 137 kts | 121° |
| 2026-05-01 12:28 | 43.37451 | -3.11177 | 3178 ft | 136 kts | 119° |
| 2026-05-01 12:29 | 43.37027 | -3.10012 | 2992 ft | 136 kts | 120° |
| 2026-05-01 12:29 | 43.36601 | -3.08841 | 2793 ft | 139 kts | 118° |
| 2026-05-01 12:29 | 43.35750 | -3.06503 | 2453 ft | 134 kts | 119° |
| 2026-05-01 12:30 | 43.34913 | -3.04207 | 2065 ft | 134 kts | 118° |
| 2026-05-01 12:30 | 43.34493 | -3.03055 | 1878 ft | 135 kts | 117° |
| 2026-05-01 12:30 | 43.34072 | -3.01900 | 1693 ft | 136 kts | 116° |
| 2026-05-01 12:31 | 43.33646 | -3.00735 | 1508 ft | 137 kts | 114° |
| 2026-05-01 12:31 | 43.33217 | -2.99561 | 1313 ft | 138 kts | 115° |
| 2026-05-01 12:31 | 43.32785 | -2.98380 | 1148 ft | 139 kts | 112° |
| 2026-05-01 12:31 | 43.32356 | -2.97202 | 933 ft | 139 kts | 114° |
| 2026-05-01 12:32 | 43.31922 | -2.96014 | 756 ft | 139 kts | 116° |
| 2026-05-01 12:32 | 43.31061 | -2.93663 | 368 ft | 136 kts | 116° |
| 2026-05-01 12:32 | 43.30641 | -2.92502 | 183 ft | 135 kts | 116° |
| 2026-05-01 12:33 | 43.30244 | -2.91431 | 125 ft | 107 kts | 117° |
| 2026-05-01 12:33 | 43.29989 | -2.90732 | 127 ft | 57 kts | 117° |
| 2026-05-01 12:33 | 43.29913 | -2.90474 | 127 ft | 37 kts | 93° |
| 2026-05-01 12:33 | 43.29931 | -2.90266 | 128 ft | 13 kts | 77° |
| 2026-05-01 12:34 | 43.29993 | -2.90244 | 127 ft | 11 kts | 314° |
| 2026-05-01 12:34 | 43.30027 | -2.90326 | 127 ft | 10 kts | 296° |
| 2026-05-01 12:34 | 43.30056 | -2.90403 | 127 ft | 9 kts | 298° |
| 2026-05-01 12:34 | 43.30082 | -2.90473 | 125 ft | 8 kts | 297° |
| 2026-05-01 12:35 | 43.30107 | -2.90537 | 125 ft | 7 kts | 297° |
| 2026-05-01 12:35 | 43.30163 | -2.90567 | 125 ft | 13 kts | 20° |
| 2026-05-01 12:35 | 43.30270 | -2.90543 | 125 ft | 19 kts | 342° |
| 2026-05-01 12:35 | 43.30350 | -2.90642 | 126 ft | 17 kts | 300° |
| 2026-05-01 12:36 | 43.30406 | -2.90712 | 125 ft | 12 kts | 37° |
| 2026-05-01 12:36 | 43.30439 | -2.90687 | 125 ft | 2 kts | 25° |
| 2026-05-01 12:36 | 43.30442 | -2.90684 | 125 ft | 0 kts | 25° |